createdAt,value
2023-02-12T00:01:33.589Z,0.40
2023-02-12T00:04:01.775Z,0.30
2023-02-12T00:06:29.582Z,0.30
2023-02-12T00:08:58.413Z,0.40
2023-02-12T00:11:29.725Z,0.40
2023-02-12T00:13:58.812Z,0.20
2023-02-12T00:16:29.175Z,0.50
2023-02-12T00:18:59.677Z,0.40
2023-02-12T00:21:28.045Z,0.30
2023-02-12T00:23:57.641Z,0.20
2023-02-12T00:26:25.528Z,0.40
2023-02-12T00:28:54.157Z,0.20
2023-02-12T00:31:26.120Z,0.30
2023-02-12T00:33:54.587Z,0.50
2023-02-12T00:36:26.888Z,0.20
2023-02-12T00:38:56.931Z,0.40
2023-02-12T00:41:26.085Z,0.20
2023-02-12T00:43:54.099Z,0.70
2023-02-12T00:46:22.407Z,0.10
2023-02-12T00:48:50.403Z,0.30
2023-02-12T00:51:18.256Z,0.70
2023-02-12T00:53:46.098Z,1.00
2023-02-12T00:56:13.992Z,0.90
2023-02-12T00:58:41.860Z,0.90
2023-02-12T01:01:09.729Z,1.40
2023-02-12T01:03:38.750Z,1.10
2023-02-12T01:06:07.240Z,1.10
2023-02-12T01:08:35.789Z,0.50
2023-02-12T01:11:06.441Z,0.60
2023-02-12T01:13:35.941Z,0.50
2023-02-12T01:16:22.463Z,0.40
2023-02-12T01:18:55.850Z,0.40
2023-02-12T01:21:29.380Z,0.50
2023-02-12T01:23:58.984Z,0.30
2023-02-12T01:26:29.635Z,0.50
2023-02-12T01:29:04.756Z,0.50
2023-02-12T01:31:38.143Z,0.40
2023-02-12T01:34:07.946Z,0.50
2023-02-12T01:36:36.399Z,0.50
2023-02-12T01:39:06.274Z,0.50
2023-02-12T01:41:40.407Z,0.40
2023-02-12T01:44:19.386Z,0.50
2023-02-12T01:46:51.016Z,0.40
2023-02-12T01:49:43.131Z,0.30
2023-02-12T01:52:20.862Z,0.40
2023-02-12T01:54:52.104Z,0.50
2023-02-12T01:57:20.412Z,0.30
2023-02-12T01:59:53.711Z,0.40
2023-02-12T02:02:21.644Z,0.50
2023-02-12T02:04:57.567Z,0.60
2023-02-12T02:07:25.543Z,0.30
2023-02-12T02:09:54.014Z,0.30
2023-02-12T02:12:40.574Z,0.50
2023-02-12T02:15:09.553Z,0.50
2023-02-12T02:17:50.322Z,0.40
2023-02-12T02:20:48.678Z,0.20
2023-02-12T02:23:45.651Z,0.60
2023-02-12T02:26:41.903Z,0.40
2023-02-12T02:29:47.654Z,0.50
2023-02-12T02:32:19.940Z,0.40
2023-02-12T02:35:02.760Z,0.30
2023-02-12T02:37:47.834Z,0.70
2023-02-12T02:40:39.243Z,1.10
2023-02-12T02:43:20.460Z,0.80
2023-02-12T02:45:58.918Z,0.90
2023-02-12T02:48:37.276Z,1.30
2023-02-12T02:51:14.680Z,1.70
2023-02-12T02:53:54.808Z,1.20
2023-02-12T02:56:25.149Z,1.30
2023-02-12T02:59:11.649Z,1.10
2023-02-12T03:02:03.426Z,1.40
2023-02-12T03:04:39.020Z,1.50
2023-02-12T03:07:15.096Z,1.20
2023-02-12T03:10:01.136Z,1.50
2023-02-12T03:13:06.976Z,1.00
2023-02-12T03:15:50.829Z,1.10
2023-02-12T03:18:30.928Z,1.10
2023-02-12T03:21:06.540Z,1.00
2023-02-12T03:23:53.136Z,1.00
2023-02-12T03:26:42.687Z,1.00
2023-02-12T03:29:11.453Z,1.20
2023-02-12T03:32:00.878Z,1.10
2023-02-12T03:34:51.619Z,0.70
2023-02-12T03:37:31.544Z,1.10
2023-02-12T03:40:20.807Z,0.80
2023-02-12T03:43:37.351Z,0.90
2023-02-12T03:46:22.526Z,1.10
2023-02-12T03:49:07.822Z,0.80
2023-02-12T03:51:40.730Z,0.90
2023-02-12T03:54:12.441Z,0.90
2023-02-12T03:57:03.266Z,1.20
2023-02-12T03:59:31.352Z,1.30
2023-02-12T04:02:00.535Z,1.10
2023-02-12T04:04:29.249Z,1.60
2023-02-12T04:06:58.265Z,1.40
2023-02-12T04:09:28.298Z,1.20
2023-02-12T04:12:28.166Z,1.00
2023-02-12T04:15:17.592Z,1.10
2023-02-12T04:18:00.970Z,1.50
2023-02-12T04:21:03.594Z,1.70
2023-02-12T04:23:57.502Z,1.50
2023-02-12T04:26:52.826Z,1.60
2023-02-12T04:29:48.468Z,1.70
2023-02-12T04:32:35.650Z,1.60
2023-02-12T04:35:14.404Z,1.40
2023-02-12T04:38:08.984Z,1.90
2023-02-12T04:40:40.961Z,1.80
2023-02-12T04:43:09.050Z,1.80
2023-02-12T04:45:38.039Z,1.30
2023-02-12T04:48:07.004Z,1.00
2023-02-12T04:50:45.361Z,1.90
2023-02-12T04:53:13.832Z,1.50
2023-02-12T04:55:42.067Z,2.20
2023-02-12T04:58:10.168Z,2.10
2023-02-12T05:00:40.463Z,2.10
2023-02-12T05:03:08.368Z,2.30
2023-02-12T05:05:36.285Z,1.50
2023-02-12T05:08:04.248Z,2.00
2023-02-12T05:10:32.077Z,1.70
2023-02-12T05:13:00.141Z,2.00
2023-02-12T05:15:28.156Z,2.70
2023-02-12T05:17:56.006Z,2.30
2023-02-12T05:20:23.822Z,2.30
2023-02-12T05:22:53.849Z,2.10
2023-02-12T05:25:22.603Z,1.90
2023-02-12T05:27:50.469Z,1.90
2023-02-12T05:30:18.495Z,2.50
2023-02-12T05:32:46.335Z,2.20
2023-02-12T05:35:14.381Z,2.10
2023-02-12T05:37:44.161Z,2.50
2023-02-12T05:40:12.584Z,2.40
2023-02-12T05:42:40.436Z,1.90
2023-02-12T05:45:08.826Z,2.20
2023-02-12T05:47:36.716Z,2.30
2023-02-12T05:50:05.264Z,2.20
2023-02-12T05:52:34.484Z,2.30
2023-02-12T05:55:02.929Z,2.30
2023-02-12T05:57:30.876Z,1.80
2023-02-12T05:59:58.684Z,1.90
2023-02-12T06:02:26.611Z,1.80
2023-02-12T06:04:54.724Z,1.90
2023-02-12T06:07:23.304Z,2.10
2023-02-12T06:09:51.176Z,1.90
2023-02-12T06:12:19.039Z,1.60
2023-02-12T06:14:47.352Z,1.50
2023-02-12T06:17:15.206Z,1.60
2023-02-12T06:19:43.122Z,2.00
2023-02-12T06:22:10.964Z,1.60
2023-02-12T06:24:38.784Z,1.40
2023-02-12T06:27:06.715Z,1.40
2023-02-12T06:29:34.679Z,1.60
2023-02-12T06:32:02.704Z,1.80
2023-02-12T06:34:30.785Z,1.40
2023-02-12T06:36:58.574Z,2.00
2023-02-12T06:39:26.463Z,1.50
2023-02-12T06:41:54.625Z,1.20
2023-02-12T06:44:22.799Z,1.40
2023-02-12T06:46:50.722Z,1.40
2023-02-12T06:49:18.799Z,1.40
2023-02-12T06:51:46.634Z,1.20
2023-02-12T06:54:18.170Z,1.40
2023-02-12T06:56:46.063Z,1.60
2023-02-12T06:59:16.871Z,1.90
2023-02-12T07:01:45.013Z,1.50
2023-02-12T07:04:13.788Z,1.80
2023-02-12T07:06:42.016Z,1.70
2023-02-12T07:09:09.975Z,1.80
2023-02-12T07:11:38.962Z,1.80
2023-02-12T07:14:07.669Z,1.80
2023-02-12T07:16:35.675Z,1.60
2023-02-12T07:19:03.808Z,2.20
2023-02-12T07:21:32.318Z,2.50
2023-02-12T07:24:00.312Z,3.20
2023-02-12T07:26:28.257Z,2.40
2023-02-12T07:28:58.763Z,2.90
2023-02-12T07:31:26.790Z,2.70
2023-02-12T07:33:57.589Z,2.60
2023-02-12T07:36:29.634Z,2.60
2023-02-12T07:38:59.107Z,2.20
2023-02-12T07:41:31.422Z,2.20
2023-02-12T07:44:07.717Z,2.40
2023-02-12T07:46:48.597Z,2.20
2023-02-12T07:49:22.488Z,2.50
2023-02-12T07:51:51.245Z,1.60
2023-02-12T07:54:19.271Z,0.90
2023-02-12T07:56:47.536Z,1.10
2023-02-12T07:59:18.717Z,0.70
2023-02-12T08:01:51.167Z,1.20
2023-02-12T08:04:23.512Z,1.10
2023-02-12T08:06:54.530Z,1.30
2023-02-12T08:09:28.288Z,1.70
2023-02-12T08:11:56.515Z,2.40
2023-02-12T08:14:24.378Z,2.10
2023-02-12T08:16:53.393Z,2.10
2023-02-12T08:19:26.148Z,2.50
2023-02-12T08:21:58.592Z,2.00
2023-02-12T08:24:26.495Z,2.00
2023-02-12T08:26:54.402Z,2.80
2023-02-12T08:29:29.839Z,1.40
2023-02-12T08:32:02.070Z,1.90
2023-02-12T08:34:34.750Z,1.40
2023-02-12T08:37:06.393Z,1.80
2023-02-12T08:39:34.566Z,2.00
2023-02-12T08:42:02.554Z,1.90
2023-02-12T08:44:30.443Z,2.00
2023-02-12T08:46:58.442Z,2.40
2023-02-12T08:49:29.933Z,2.40
2023-02-12T08:52:01.997Z,1.70
2023-02-12T08:54:31.748Z,1.50
2023-02-12T08:57:02.438Z,2.20
2023-02-12T08:59:31.717Z,2.20
2023-02-12T09:02:00.893Z,1.70
2023-02-12T09:04:29.596Z,2.20
2023-02-12T09:06:57.922Z,1.80
2023-02-12T09:09:26.361Z,2.00
2023-02-12T09:11:54.540Z,1.80
2023-02-12T09:14:24.479Z,2.20
2023-02-12T09:16:54.639Z,1.70
2023-02-12T09:19:23.182Z,1.60
2023-02-12T09:21:56.887Z,1.60
2023-02-12T09:24:28.006Z,1.80
2023-02-12T09:26:56.847Z,1.70
2023-02-12T09:29:24.776Z,1.40
2023-02-12T09:31:52.915Z,1.20
2023-02-12T09:34:21.027Z,1.60
2023-02-12T09:36:48.933Z,1.60
2023-02-12T09:39:16.855Z,1.70
2023-02-12T09:42:04.144Z,2.20
2023-02-12T09:44:50.060Z,1.70
2023-02-12T09:47:44.177Z,2.30
2023-02-12T09:50:34.296Z,2.30
2023-02-12T09:53:03.275Z,2.20
2023-02-12T09:55:35.210Z,2.20
2023-02-12T09:58:14.547Z,2.30
2023-02-12T10:00:42.581Z,2.00
2023-02-12T10:03:17.372Z,2.80
2023-02-12T10:05:56.078Z,2.60
2023-02-12T10:09:03.979Z,3.00
2023-02-12T10:11:46.394Z,2.30
2023-02-12T10:14:44.437Z,2.80
2023-02-12T10:17:30.402Z,2.80
2023-02-12T10:20:48.043Z,2.10
2023-02-12T10:23:58.363Z,2.50
2023-02-12T10:26:38.253Z,2.30
2023-02-12T10:29:18.115Z,2.90
2023-02-12T10:31:53.452Z,2.70
2023-02-12T10:34:26.318Z,2.80
2023-02-12T10:37:08.866Z,2.70
2023-02-12T10:39:49.625Z,2.00
2023-02-12T10:42:39.620Z,2.20
2023-02-12T10:45:19.472Z,2.30
2023-02-12T10:47:54.207Z,2.10
2023-02-12T10:50:48.866Z,2.90
2023-02-12T10:53:29.837Z,2.30
2023-02-12T10:56:13.020Z,1.70
2023-02-12T10:58:55.852Z,2.30
2023-02-12T11:01:35.185Z,2.70
2023-02-12T11:04:29.608Z,2.50
2023-02-12T11:07:09.006Z,1.90
2023-02-12T11:09:46.827Z,1.90
2023-02-12T11:12:43.679Z,2.40
2023-02-12T11:15:23.576Z,3.10
2023-02-12T11:18:05.542Z,1.70
2023-02-12T11:20:50.090Z,1.60
2023-02-12T11:23:38.067Z,3.50
2023-02-12T11:26:20.036Z,1.90
2023-02-12T11:28:55.889Z,1.90
2023-02-12T11:31:33.896Z,2.40
2023-02-12T11:34:04.566Z,2.30
2023-02-12T11:36:37.518Z,1.80
2023-02-12T11:39:07.910Z,1.50
2023-02-12T11:41:42.374Z,2.20
2023-02-12T11:44:22.938Z,1.90
2023-02-12T11:46:56.672Z,2.00
2023-02-12T11:49:49.190Z,2.20
2023-02-12T11:52:31.825Z,2.50
2023-02-12T11:55:06.716Z,2.30
2023-02-12T11:57:43.373Z,3.90
2023-02-12T12:00:20.244Z,2.00
2023-02-12T12:02:58.426Z,2.50
2023-02-12T12:05:35.782Z,2.80
2023-02-12T12:08:16.877Z,3.10
2023-02-12T12:10:52.324Z,3.30
2023-02-12T12:13:33.785Z,2.90
2023-02-12T12:16:33.418Z,2.70
2023-02-12T12:19:34.249Z,4.30
2023-02-12T12:22:42.641Z,2.60
2023-02-12T12:25:31.860Z,1.70
2023-02-12T12:28:44.400Z,2.00
2023-02-12T12:31:28.904Z,1.60
2023-02-12T12:34:10.555Z,1.70
2023-02-12T12:36:55.901Z,1.90
2023-02-12T12:40:28.018Z,2.20
2023-02-12T12:43:26.428Z,1.20
2023-02-12T12:46:26.831Z,1.20
2023-02-12T12:49:32.427Z,1.60
2023-02-12T12:52:27.530Z,1.80
2023-02-12T12:55:22.813Z,1.60
2023-02-12T12:58:13.321Z,1.50
2023-02-12T13:01:17.641Z,1.90
2023-02-12T13:04:52.571Z,1.40
2023-02-12T13:07:44.658Z,1.10
2023-02-12T13:10:48.561Z,1.50
2023-02-12T13:13:31.590Z,1.10
2023-02-12T13:16:33.649Z,1.80
2023-02-12T13:20:00.448Z,0.80
2023-02-12T13:22:42.891Z,1.50
2023-02-12T13:25:42.708Z,1.00
2023-02-12T13:28:24.719Z,1.70
2023-02-12T13:30:56.032Z,1.10
2023-02-12T13:33:43.610Z,1.90
2023-02-12T13:36:15.127Z,0.80
2023-02-12T13:39:19.248Z,1.10
2023-02-12T13:42:02.449Z,1.20
2023-02-12T13:45:18.249Z,2.30
2023-02-12T13:48:13.914Z,1.40
2023-02-12T13:51:01.405Z,1.40
2023-02-12T13:54:12.922Z,1.50
2023-02-12T13:56:56.502Z,2.00
2023-02-12T13:59:34.333Z,2.00
2023-02-12T14:02:29.493Z,1.20
2023-02-12T14:05:01.635Z,0.80
2023-02-12T14:07:47.729Z,1.20
2023-02-12T14:10:37.105Z,1.50
2023-02-12T14:13:27.982Z,1.50
2023-02-12T14:15:59.028Z,1.10
2023-02-12T14:18:36.586Z,1.10
2023-02-12T14:21:35.298Z,1.40
2023-02-12T14:24:36.782Z,1.50
2023-02-12T14:27:19.552Z,1.40
2023-02-12T14:30:11.282Z,1.40
2023-02-12T14:32:55.515Z,0.80
2023-02-12T14:35:49.821Z,1.30
2023-02-12T14:38:20.558Z,1.00
2023-02-12T14:40:51.051Z,1.40
2023-02-12T14:43:56.005Z,1.50
2023-02-12T14:46:23.862Z,1.30
2023-02-12T14:49:06.312Z,1.00
2023-02-12T14:51:54.961Z,2.20
2023-02-12T14:54:54.805Z,0.90
2023-02-12T14:57:41.779Z,1.10
2023-02-12T15:00:18.607Z,1.20
2023-02-12T15:03:07.505Z,1.80
2023-02-12T15:05:50.620Z,0.60
2023-02-12T15:08:46.773Z,1.00
2023-02-12T15:11:47.244Z,1.60
2023-02-12T15:14:30.971Z,2.10
2023-02-12T15:17:18.157Z,1.90
2023-02-12T15:19:58.283Z,0.70
2023-02-12T15:22:41.071Z,1.70
2023-02-12T15:25:32.809Z,0.70
2023-02-12T15:28:23.099Z,2.10
2023-02-12T15:30:54.726Z,1.90
2023-02-12T15:33:33.950Z,0.90
2023-02-12T15:36:04.308Z,1.40
2023-02-12T15:38:37.565Z,0.90
2023-02-12T15:41:06.983Z,2.30
2023-02-12T15:43:41.414Z,1.40
2023-02-12T15:46:18.455Z,2.00
2023-02-12T15:48:46.559Z,1.90
2023-02-12T15:51:26.589Z,1.00
2023-02-12T15:53:55.258Z,1.70
2023-02-12T15:56:25.990Z,1.40
2023-02-12T15:59:00.540Z,1.60
2023-02-12T16:01:32.635Z,1.40
2023-02-12T16:04:07.442Z,1.60
2023-02-12T16:06:39.661Z,1.90
2023-02-12T16:09:17.227Z,0.90
2023-02-12T16:11:48.144Z,0.80
2023-02-12T16:14:32.121Z,1.50
2023-02-12T16:16:59.972Z,1.90
2023-02-12T16:19:37.136Z,0.80
2023-02-12T16:22:05.045Z,1.00
2023-02-12T16:24:46.303Z,1.70
2023-02-12T16:27:23.135Z,1.70
2023-02-12T16:29:59.750Z,1.70
2023-02-12T16:32:41.394Z,1.10
2023-02-12T16:35:09.449Z,1.20
2023-02-12T16:37:37.269Z,1.60
2023-02-12T16:40:14.327Z,2.00
2023-02-12T16:42:48.018Z,1.80
2023-02-12T16:45:26.174Z,1.60
2023-02-12T16:47:59.429Z,1.90
2023-02-12T16:50:34.276Z,1.60
2023-02-12T16:53:09.057Z,1.80
2023-02-12T16:55:36.910Z,1.40
2023-02-12T16:58:04.769Z,2.10
2023-02-12T17:00:32.743Z,2.80
2023-02-12T17:03:00.648Z,1.60
2023-02-12T17:05:28.644Z,1.60
2023-02-12T17:07:56.530Z,2.10
2023-02-12T17:10:24.402Z,1.40
2023-02-12T17:12:53.231Z,2.40
2023-02-12T17:15:28.560Z,2.40
2023-02-12T17:17:56.466Z,1.70
2023-02-12T17:20:24.452Z,2.80
2023-02-12T17:22:57.938Z,2.10
2023-02-12T17:25:26.744Z,2.00
2023-02-12T17:27:54.604Z,2.00
2023-02-12T17:30:24.348Z,3.20
2023-02-12T17:32:52.684Z,3.60
2023-02-12T17:35:20.512Z,2.50
2023-02-12T17:37:48.382Z,2.20
2023-02-12T17:40:20.176Z,3.00
2023-02-12T17:42:48.183Z,2.80
2023-02-12T17:45:17.421Z,2.50
2023-02-12T17:47:45.250Z,2.50
2023-02-12T17:50:15.304Z,2.80
2023-02-12T17:52:43.478Z,1.50
2023-02-12T17:55:13.992Z,3.10
2023-02-12T17:57:41.891Z,2.50
2023-02-12T18:00:12.780Z,3.00
2023-02-12T18:02:40.701Z,3.20
2023-02-12T18:05:09.058Z,3.10
2023-02-12T18:07:38.047Z,3.10
2023-02-12T18:10:10.120Z,2.90
2023-02-12T18:12:39.664Z,3.30
2023-02-12T18:15:09.723Z,2.20
2023-02-12T18:17:37.739Z,1.80
2023-02-12T18:20:06.867Z,2.90
2023-02-12T18:22:35.799Z,2.90
2023-02-12T18:25:04.221Z,3.70
2023-02-12T18:27:32.104Z,2.50
2023-02-12T18:29:59.995Z,2.90
2023-02-12T18:32:28.111Z,2.80
2023-02-12T18:34:56.131Z,2.30
2023-02-12T18:37:24.038Z,2.60
2023-02-12T18:39:52.172Z,3.50
2023-02-12T18:42:20.261Z,3.50
2023-02-12T18:44:49.745Z,2.70
2023-02-12T18:47:19.594Z,2.30
2023-02-12T18:49:47.786Z,2.90
2023-02-12T18:52:15.778Z,2.80
2023-02-12T18:54:44.686Z,3.10
2023-02-12T18:57:12.941Z,3.10
2023-02-12T18:59:41.002Z,3.60
2023-02-12T19:02:15.514Z,3.30
2023-02-12T19:04:43.703Z,2.90
2023-02-12T19:07:11.766Z,3.50
2023-02-12T19:09:41.708Z,3.50
2023-02-12T19:12:10.956Z,3.90
2023-02-12T19:14:38.916Z,3.60
2023-02-12T19:17:07.562Z,3.50
2023-02-12T19:19:35.519Z,3.20
2023-02-12T19:22:06.802Z,3.10
2023-02-12T19:24:46.341Z,4.30
2023-02-12T19:27:22.792Z,3.00
2023-02-12T19:29:51.129Z,2.80
2023-02-12T19:32:21.314Z,3.20
2023-02-12T19:34:49.968Z,2.70
2023-02-12T19:37:18.436Z,2.60
2023-02-12T19:39:46.492Z,2.80
2023-02-12T19:42:17.482Z,3.40
2023-02-12T19:44:56.623Z,2.80
2023-02-12T19:47:27.342Z,2.80
2023-02-12T19:49:57.516Z,2.60
2023-02-12T19:52:27.595Z,3.30
2023-02-12T19:54:56.268Z,3.10
2023-02-12T19:57:25.819Z,3.40
2023-02-12T19:59:55.093Z,3.70
2023-02-12T20:02:23.278Z,3.20
2023-02-12T20:04:53.675Z,2.80
2023-02-12T20:07:25.123Z,3.00
2023-02-12T20:09:55.805Z,3.10
2023-02-12T20:12:33.923Z,2.80
2023-02-12T20:15:04.612Z,3.40
2023-02-12T20:17:32.773Z,3.10
2023-02-12T20:20:00.821Z,3.30
2023-02-12T20:22:31.499Z,3.00
2023-02-12T20:25:02.006Z,3.10
2023-02-12T20:27:30.655Z,3.00
2023-02-12T20:29:59.060Z,2.70
2023-02-12T20:32:36.578Z,2.70
2023-02-12T20:35:06.321Z,2.90
2023-02-12T20:37:38.949Z,2.70
2023-02-12T20:40:10.102Z,2.90
2023-02-12T20:42:39.806Z,2.70
2023-02-12T20:45:29.841Z,2.40
2023-02-12T20:48:00.577Z,2.20
2023-02-12T20:50:28.845Z,2.60
2023-02-12T20:52:57.191Z,2.40
2023-02-12T20:55:25.571Z,2.00
2023-02-12T20:57:55.253Z,2.20
2023-02-12T21:00:24.585Z,2.50
2023-02-12T21:02:58.397Z,2.30
2023-02-12T21:05:26.316Z,2.00
2023-02-12T21:07:54.320Z,2.20
2023-02-12T21:10:23.540Z,1.80
2023-02-12T21:12:51.372Z,2.00
2023-02-12T21:15:22.316Z,2.20
2023-02-12T21:17:50.375Z,1.90
2023-02-12T21:20:21.132Z,1.40
2023-02-12T21:22:49.103Z,1.90
2023-02-12T21:25:17.508Z,1.70
2023-02-12T21:27:47.871Z,1.80
2023-02-12T21:30:16.287Z,1.80
2023-02-12T21:32:44.397Z,1.90
2023-02-12T21:35:12.328Z,1.80
2023-02-12T21:37:43.127Z,1.90
2023-02-12T21:40:11.428Z,1.80
2023-02-12T21:42:40.586Z,1.50
2023-02-12T21:45:11.487Z,1.70
2023-02-12T21:47:39.451Z,1.90
2023-02-12T21:50:09.377Z,0.90
2023-02-12T21:52:41.338Z,1.50
2023-02-12T21:55:12.877Z,1.90
2023-02-12T21:57:40.802Z,1.40
2023-02-12T22:00:12.641Z,1.70
2023-02-12T22:02:40.805Z,1.60
2023-02-12T22:05:17.996Z,1.10
2023-02-12T22:07:50.014Z,1.60
2023-02-12T22:10:18.301Z,1.30
2023-02-12T22:12:46.099Z,0.80
2023-02-12T22:15:14.093Z,1.60
2023-02-12T22:17:41.881Z,1.60
2023-02-12T22:20:10.346Z,1.60
2023-02-12T22:22:38.411Z,1.20
2023-02-12T22:25:06.633Z,1.30
2023-02-12T22:27:35.074Z,1.20
2023-02-12T22:30:03.386Z,1.30
2023-02-12T22:32:31.358Z,0.70
2023-02-12T22:34:59.320Z,1.20
2023-02-12T22:37:27.160Z,1.50
2023-02-12T22:39:54.976Z,1.40
2023-02-12T22:42:22.768Z,0.80
2023-02-12T22:44:50.666Z,1.10
2023-02-12T22:47:18.487Z,1.40
2023-02-12T22:49:46.287Z,1.60
2023-02-12T22:52:14.104Z,1.30
2023-02-12T22:54:41.962Z,1.20
2023-02-12T22:57:09.792Z,1.10
2023-02-12T22:59:37.753Z,0.90
2023-02-12T23:02:05.544Z,1.10
2023-02-12T23:04:33.371Z,1.40
2023-02-12T23:07:01.235Z,1.40
2023-02-12T23:09:29.087Z,1.80
2023-02-12T23:11:56.982Z,1.30
2023-02-12T23:14:24.832Z,1.30
2023-02-12T23:16:52.665Z,1.30
2023-02-12T23:19:20.531Z,0.90
2023-02-12T23:21:48.576Z,1.20
2023-02-12T23:24:16.487Z,1.00
2023-02-12T23:26:44.377Z,1.00
2023-02-12T23:29:12.764Z,1.00
2023-02-12T23:31:40.647Z,1.10
2023-02-12T23:34:08.964Z,0.70
2023-02-12T23:36:36.765Z,0.90
2023-02-12T23:39:06.097Z,0.80
2023-02-12T23:41:34.733Z,0.60
2023-02-12T23:44:06.485Z,0.70
2023-02-12T23:46:34.416Z,0.80
2023-02-12T23:49:02.348Z,1.00
2023-02-12T23:51:31.478Z,0.90
2023-02-12T23:53:59.446Z,1.40
2023-02-12T23:56:28.010Z,1.00
2023-02-12T23:58:57.596Z,1.00
